Time;durP1;ratioP1;P1;durP2;ratioP2;P2;SDS_P1;SDS_P2;PMS_P1;PMS_P2;Temp;Humidity;BMP_temperature;BMP_pressure;BME280_temperature;BME280_humidity;BME280_pressure;Samples;Min_cycle;Max_cycle;Signal;HPM_P1;HPM_P2
2023/05/30 00:00:01;;;;;;;21.02;6.53;;;14.70;99.90;;;15.05;67.37;102616.28;5082143;28;20047;-67
2023/05/30 00:02:33;;;;;;;17.60;6.20;;;14.70;99.90;;;15.05;67.45;102616.28;5084160;28;20048;-67
2023/05/30 00:05:02;;;;;;;24.67;6.72;;;14.70;99.90;;;15.01;67.17;102616.22;5076515;28;20060;-67
2023/05/30 00:07:31;;;;;;;19.77;6.72;;;14.70;99.90;;;14.96;67.94;102610.88;5083966;28;20047;-67
2023/05/30 00:09:59;;;;;;;19.83;6.72;;;14.70;99.90;;;14.92;68.17;102608.19;5081122;28;20043;-67
2023/05/30 00:12:28;;;;;;;22.52;6.68;;;14.60;99.90;;;14.88;68.13;102609.97;5083122;28;20063;-67
2023/05/30 00:14:59;;;;;;;17.77;6.80;;;14.50;99.90;;;14.89;68.25;102619.72;5081953;28;20058;-67
2023/05/30 00:17:29;;;;;;;26.92;7.47;;;14.50;99.90;;;14.92;68.14;102619.75;5081929;28;20089;-67
2023/05/30 00:19:58;;;;;;;16.80;6.57;;;14.60;99.90;;;14.92;67.93;102630.41;5066003;28;20113;-67
2023/05/30 00:22:26;;;;;;;23.02;6.70;;;14.60;99.90;;;14.92;68.10;102627.75;5081099;28;20071;-67
2023/05/30 00:24:55;;;;;;;17.80;6.55;;;14.50;99.90;;;14.97;68.30;102630.41;5084181;28;20048;-67
2023/05/30 00:27:23;;;;;;;21.52;6.80;;;14.60;99.90;;;14.99;68.18;102632.22;5076576;28;20040;-67
2023/05/30 00:29:52;;;;;;;25.50;6.80;;;14.60;99.90;;;14.99;68.25;102631.31;5083629;28;20078;-67
2023/05/30 00:32:20;;;;;;;20.67;6.72;;;14.60;99.90;;;14.96;67.85;102634.84;5096726;28;20041;-67
2023/05/30 00:34:50;;;;;;;23.08;7.47;;;14.60;99.90;;;14.99;68.20;102634.88;5082895;28;20090;-67
2023/05/30 00:37:18;;;;;;;23.48;7.25;;;14.60;99.90;;;14.89;68.02;102646.38;5081989;28;20036;-66
2023/05/30 00:39:47;;;;;;;21.65;6.95;;;14.60;99.90;;;14.96;67.98;102631.31;5080746;28;20059;-67
2023/05/30 00:42:15;;;;;;;22.15;7.63;;;14.60;99.90;;;14.90;68.15;102632.19;5082842;28;20048;-67
2023/05/30 00:44:44;;;;;;;17.80;7.22;;;14.60;99.90;;;14.90;68.44;102642.84;5081144;28;20071;-67
2023/05/30 00:47:14;;;;;;;28.85;7.50;;;14.50;99.90;;;14.95;68.13;102640.19;5083529;28;20051;-66
2023/05/30 00:49:45;;;;;;;23.30;7.28;;;14.60;99.90;;;14.43;68.27;102553.72;5076710;28;20449;-67
2023/05/30 00:52:15;;;;;;;18.80;6.72;;;14.60;99.90;;;14.96;68.22;102642.84;5099264;28;20048;-67
2023/05/30 00:54:48;;;;;;;22.55;6.85;;;14.60;99.90;;;14.80;68.23;102641.00;5081944;28;20047;-67
2023/05/30 00:57:17;;;;;;;24.63;7.03;;;14.60;99.90;;;14.92;68.16;102643.75;5101101;28;20047;-67
2023/05/30 00:59:47;;;;;;;21.25;6.90;;;14.60;99.90;;;14.86;68.50;102638.38;5102253;28;20139;-66
2023/05/30 01:02:16;;;;;;;21.80;7.18;;;14.60;99.90;;;14.83;68.50;102649.00;5084600;28;20052;-67
2023/05/30 01:04:44;;;;;;;22.92;6.85;;;14.50;99.90;;;14.85;68.35;102639.22;5087697;28;20063;-67
2023/05/30 01:07:14;;;;;;;21.95;6.60;;;14.50;99.90;;;14.87;68.34;102642.81;5086335;28;20047;-66
2023/05/30 01:09:43;;;;;;;23.13;6.82;;;14.60;99.90;;;14.92;68.18;102638.41;5084404;28;20095;-66
2023/05/30 01:12:17;;;;;;;;;;;14.60;99.90;;;14.88;68.24;102641.94;5086530;28;20040;-66
2023/05/30 01:14:53;;;;;;;20.77;7.07;;;14.60;99.90;;;14.87;68.32;102634.81;5086249;28;20407;-66
2023/05/30 01:17:30;;;;;;;25.42;7.35;;;14.60;99.90;;;14.83;68.48;102630.34;5099195;28;20098;-66
2023/05/30 01:20:07;;;;;;;20.75;7.35;;;14.50;99.90;;;14.83;68.25;102641.00;5082013;28;20095;-67
2023/05/30 01:23:00;;;;;;;20.05;7.72;;;14.50;99.90;;;14.71;68.45;102611.59;5084515;28;20052;-67
2023/05/30 01:25:53;;;;;;;24.35;7.40;;;14.50;99.90;;;14.84;68.31;102631.25;5100454;28;20047;-67
2023/05/30 01:28:28;;;;;;;21.20;7.25;;;14.50;99.90;;;14.78;68.48;102631.19;5066624;28;20087;-67
2023/05/30 01:30:59;;;;;;;23.23;7.70;;;14.50;99.90;;;14.78;68.68;102628.53;5099208;28;20063;-67
2023/05/30 01:33:29;;;;;;;16.40;6.45;;;14.40;99.90;;;14.77;68.62;102627.63;5079857;28;20041;-67
2023/05/30 01:35:57;;;;;;;24.42;7.30;;;14.40;99.90;;;14.82;68.72;102633.00;5085372;28;20390;-67
2023/05/30 01:38:25;;;;;;;19.17;6.90;;;14.40;99.90;;;14.81;68.71;102631.19;5084545;28;20040;-67
2023/05/30 01:40:57;;;;;;;25.20;7.45;;;14.40;99.90;;;14.71;68.84;102635.56;5085367;28;20044;-66
2023/05/30 01:43:40;;;;;;;21.88;7.43;;;14.40;99.90;;;14.57;68.97;102647.94;5101220;28;20060;-66
2023/05/30 01:46:20;;;;;;;26.52;7.30;;;14.30;99.90;;;14.67;69.06;102641.78;5081029;28;20044;-66
2023/05/30 01:49:00;;;;;;;20.20;7.15;;;14.30;99.90;;;14.65;69.06;102642.66;5082985;28;20582;-66
2023/05/30 01:51:35;;;;;;;20.38;6.93;;;14.30;99.90;;;14.70;68.99;102639.13;5080353;28;20063;-66
2023/05/30 01:54:09;;;;;;;22.45;7.07;;;14.30;99.90;;;14.67;69.14;102644.47;5084755;28;20097;-67
2023/05/30 01:56:39;;;;;;;20.52;6.72;;;14.30;99.90;;;14.64;69.30;102643.53;5086235;28;20044;-67
2023/05/30 01:59:09;;;;;;;25.10;7.53;;;14.30;99.90;;;14.61;69.23;102639.09;5081878;28;20131;-67
2023/05/30 02:01:40;;;;;;;21.65;7.03;;;14.30;99.90;;;14.64;69.59;102643.53;5095363;28;20049;-67
2023/05/30 02:04:09;;;;;;;23.38;7.05;;;14.20;99.90;;;14.56;69.18;102627.47;5085612;28;20526;-67
2023/05/30 02:06:38;;;;;;;14.63;6.37;;;14.30;99.90;;;14.72;69.06;102648.03;5083901;28;20051;-66
2023/05/30 02:09:07;;;;;;;23.33;7.50;;;14.30;99.90;;;14.70;69.05;102644.47;5083012;28;20051;-67
2023/05/30 02:11:37;;;;;;;21.88;7.15;;;14.30;99.90;;;14.70;69.25;102647.13;5067437;28;20119;-67
2023/05/30 02:14:06;;;;;;;21.30;6.35;;;14.30;99.90;;;14.71;69.16;102651.56;5083503;28;20080;-67
2023/05/30 02:16:36;;;;;;;19.25;6.50;;;14.30;99.90;;;14.69;68.90;102650.66;5085814;28;20051;-67
2023/05/30 02:19:06;;;;;;;21.88;7.22;;;14.30;99.90;;;14.70;69.21;102651.56;5061028;28;20158;-67
2023/05/30 02:21:35;;;;;;;20.63;6.80;;;14.30;99.90;;;14.69;69.38;102650.66;5083235;28;20052;-67
2023/05/30 02:24:04;;;;;;;16.10;6.82;;;14.30;99.90;;;14.74;69.09;102651.59;5100729;28;20044;-67
2023/05/30 02:26:34;;;;;;;20.05;7.07;;;14.30;99.90;;;14.68;69.50;102651.56;5099524;28;20052;-67
2023/05/30 02:29:03;;;;;;;18.25;6.70;;;14.20;99.90;;;14.70;68.96;102648.88;5083894;28;20056;-67
2023/05/30 02:31:31;;;;;;;19.02;7.22;;;14.20;99.90;;;14.66;69.30;102650.66;5083313;28;20101;-67
2023/05/30 02:34:02;;;;;;;20.83;7.55;;;14.20;99.90;;;14.68;69.54;102654.22;5083123;28;20045;-67
2023/05/30 02:36:32;;;;;;;;;;;14.20;99.90;;;14.70;69.26;102654.22;5061488;28;20057;-67
2023/05/30 02:39:06;;;;;;;23.30;6.50;;;14.30;99.90;;;14.66;69.54;102660.41;5085780;28;20394;-67
2023/05/30 02:41:37;;;;;;;20.77;6.80;;;14.20;99.90;;;14.62;69.70;102655.94;5066108;28;20150;-67
2023/05/30 02:44:07;;;;;;;19.35;7.25;;;14.20;99.90;;;14.66;69.77;102657.75;5082212;28;20071;-67
2023/05/30 02:46:36;;;;;;;17.13;6.70;;;14.20;99.90;;;14.65;69.97;102662.19;5083336;28;20037;-67
2023/05/30 02:49:08;;;;;;;23.33;7.47;;;14.20;99.90;;;14.66;69.68;102663.06;5098262;28;20474;-67
2023/05/30 02:51:38;;;;;;;20.15;7.13;;;14.30;99.90;;;14.72;69.72;102664.00;5052943;28;20049;-67
2023/05/30 02:54:10;;;;;;;22.25;7.20;;;14.30;99.90;;;14.73;69.85;102665.78;5083186;28;20044;-67
2023/05/30 02:56:59;;;;;;;21.42;7.40;;;14.30;99.90;;;14.75;69.82;102664.03;5078192;28;20489;-67
2023/05/30 02:59:48;;;;;;;24.77;7.80;;;14.30;99.90;;;14.77;69.87;102664.94;5081540;28;20059;-67
2023/05/30 03:02:16;;;;;;;23.27;7.25;;;14.30;99.90;;;14.77;69.69;102654.28;5060014;28;20135;-67
2023/05/30 03:04:46;;;;;;;20.35;7.30;;;14.30;99.90;;;14.86;69.75;102653.47;5076470;28;20477;-67
2023/05/30 03:07:17;;;;;;;19.00;7.32;;;14.40;99.90;;;14.89;69.93;102657.03;5100089;28;20051;-67
2023/05/30 03:09:46;;;;;;;27.30;6.85;;;14.40;99.90;;;14.78;69.65;102633.84;5082187;28;20048;-67
2023/05/30 03:12:16;;;;;;;22.80;7.03;;;14.50;99.90;;;14.96;69.51;102656.16;5098785;28;20044;-67
2023/05/30 03:14:45;;;;;;;17.58;6.47;;;14.50;99.90;;;15.01;69.44;102656.22;5099584;28;20566;-67
2023/05/30 03:17:15;;;;;;;22.63;6.93;;;14.60;99.90;;;15.09;69.38;102663.38;5082113;28;20393;-67
2023/05/30 03:19:43;;;;;;;20.60;7.03;;;14.70;99.90;;;15.06;69.44;102665.16;5083834;28;20052;-68
2023/05/30 03:22:14;;;;;;;21.10;6.78;;;14.70;99.90;;;15.06;69.32;102666.00;5076177;28;20298;-67
2023/05/30 03:24:42;;;;;;;25.83;7.35;;;14.70;99.90;;;14.41;69.33;102551.06;5083171;28;20541;-67
2023/05/30 03:27:12;;;;;;;20.48;7.03;;;14.70;99.90;;;15.07;69.26;102659.81;5097938;28;20444;-67
2023/05/30 03:29:40;;;;;;;21.30;7.60;;;14.70;99.90;;;15.11;69.32;102663.38;5098947;28;20142;-67
2023/05/30 03:32:09;;;;;;;17.83;6.68;;;14.70;99.90;;;15.08;69.48;102658.91;5082720;28;20539;-67
2023/05/30 03:34:38;;;;;;;19.85;6.65;;;14.70;99.90;;;15.12;69.17;102658.06;5080928;28;20052;-67
2023/05/30 03:37:07;;;;;;;16.90;6.57;;;14.70;99.90;;;15.16;68.78;102657.19;5099269;28;20083;-66
2023/05/30 03:39:37;;;;;;;18.38;7.18;;;14.80;99.90;;;15.14;68.91;102653.63;5081480;28;20044;-66
2023/05/30 03:42:06;;;;;;;16.90;6.83;;;14.70;99.90;;;15.12;69.35;102657.16;5084844;28;20770;-67
2023/05/30 03:44:35;;;;;;;15.60;7.00;;;14.70;99.90;;;15.12;69.31;102666.06;5093152;28;20291;-66
2023/05/30 03:47:04;;;;;;;18.25;7.03;;;14.70;99.90;;;15.20;69.31;102667.00;5083917;28;20079;-66
2023/05/30 03:49:32;;;;;;;14.30;6.40;;;14.70;99.90;;;15.19;69.12;102664.31;5082139;28;20044;-67
2023/05/30 03:52:01;;;;;;;11.95;6.35;;;14.80;99.90;;;15.27;68.87;102675.94;5098658;28;20044;-67
2023/05/30 03:54:29;;;;;;;16.13;7.20;;;14.90;99.90;;;15.27;69.04;102674.13;5081219;28;20045;-67
2023/05/30 03:57:00;;;;;;;17.73;7.00;;;14.90;99.90;;;15.18;69.10;102670.53;5097716;28;20094;-67
2023/05/30 03:59:30;;;;;;;15.30;6.32;;;14.80;99.90;;;15.25;68.97;102677.69;5066570;28;20477;-67
2023/05/30 04:01:58;;;;;;;18.02;7.28;;;14.80;99.90;;;15.11;69.06;102666.06;5079793;28;20452;-67
2023/05/30 04:04:28;;;;;;;22.30;7.10;;;14.80;99.90;;;15.25;68.99;102685.69;5076661;28;20052;-67
2023/05/30 04:06:56;;;;;;;18.63;7.25;;;14.90;99.90;;;15.22;69.08;102677.66;5084005;28;20482;-67
2023/05/30 04:09:24;;;;;;;17.67;7.20;;;14.90;99.90;;;15.20;69.44;102674.09;5081269;28;20083;-66
2023/05/30 04:11:53;;;;;;;21.52;7.38;;;14.80;99.90;;;15.22;69.36;102680.31;5082013;28;20090;-66
2023/05/30 04:14:23;;;;;;;16.15;7.70;;;14.80;99.90;;;15.12;69.30;102679.38;5082328;28;20444;-67
2023/05/30 04:16:51;;;;;;;13.10;7.00;;;14.80;99.90;;;15.13;69.59;102672.28;5080988;28;20408;-67
2023/05/30 04:19:20;;;;;;;15.43;7.50;;;14.80;99.90;;;15.15;69.39;102679.41;5082971;28;20044;-67
2023/05/30 04:21:48;;;;;;;18.50;7.32;;;14.70;99.90;;;15.20;69.47;102684.75;5081369;28;20098;-67
2023/05/30 04:24:17;;;;;;;15.13;7.05;;;14.80;99.90;;;15.30;69.21;102694.59;5099357;28;20493;-67
2023/05/30 04:26:48;;;;;;;18.20;7.32;;;14.90;99.90;;;15.31;68.74;102694.59;5092115;28;20051;-67
2023/05/30 04:29:20;;;;;;;22.17;7.90;;;15.00;99.90;;;15.31;68.39;102696.41;5093370;28;20057;-67
2023/05/30 04:31:50;;;;;;;17.58;7.00;;;15.00;99.90;;;15.31;68.08;102693.72;5101613;28;20066;-67
2023/05/30 04:34:18;;;;;;;16.80;7.43;;;14.90;99.90;;;15.27;67.98;102691.94;5068875;28;20041;-67
2023/05/30 04:36:47;;;;;;;18.88;7.38;;;15.00;99.90;;;15.25;67.83;102691.88;5084451;28;20297;-66
2023/05/30 04:39:15;;;;;;;13.25;7.53;;;14.90;99.90;;;15.28;67.82;102697.25;5087196;28;20145;-66
2023/05/30 04:41:44;;;;;;;13.93;7.22;;;14.90;99.90;;;15.32;67.47;102700.81;5100801;28;20914;-66
2023/05/30 04:44:13;;;;;;;14.70;7.38;;;15.00;99.90;;;15.25;67.13;102696.34;5087751;28;20048;-67
2023/05/30 04:46:46;;;;;;;19.35;7.78;;;14.90;99.90;;;15.22;66.88;102697.22;5095786;28;20051;-67
2023/05/30 04:49:16;;;;;;;13.98;6.93;;;14.90;99.90;;;15.15;67.07;102673.19;5097697;28;20049;-67
2023/05/30 04:51:45;;;;;;;17.90;7.05;;;14.90;99.90;;;15.25;67.26;102702.56;5102218;28;20401;-67
2023/05/30 04:54:14;;;;;;;19.23;8.00;;;14.90;99.90;;;15.22;67.28;102693.66;5084776;28;20131;-67
2023/05/30 04:56:42;;;;;;;13.75;7.28;;;14.90;99.90;;;15.26;67.36;102691.03;5085490;28;20052;-67
2023/05/30 04:59:10;;;;;;;19.05;7.45;;;14.90;99.90;;;15.33;67.31;102697.25;5086615;28;20117;-67
2023/05/30 05:01:41;;;;;;;15.05;7.47;;;15.00;99.90;;;15.36;67.19;102702.63;5084518;28;20047;-67
2023/05/30 05:04:10;;;;;;;18.67;7.72;;;15.00;99.90;;;15.33;67.35;102694.59;5087771;28;20055;-67
2023/05/30 05:06:40;;;;;;;15.02;7.70;;;15.00;99.90;;;15.32;67.04;102695.50;5080705;28;20056;-67
2023/05/30 05:09:08;;;;;;;20.95;7.90;;;15.00;99.90;;;15.20;66.90;102698.97;5086769;28;20056;-67
2023/05/30 05:11:36;;;;;;;13.80;7.05;;;14.90;99.90;;;15.21;67.12;102700.75;5084620;28;20102;-67
2023/05/30 05:14:05;;;;;;;23.20;8.38;;;14.90;99.90;;;15.20;67.11;102695.41;5085892;28;20047;-67
2023/05/30 05:16:33;;;;;;;16.95;8.40;;;14.90;99.90;;;15.27;67.52;102700.78;5085653;28;20094;-67
2023/05/30 05:19:03;;;;;;;18.45;7.90;;;14.90;99.90;;;15.25;67.33;102699.88;5100858;28;20409;-67
2023/05/30 05:21:31;;;;;;;18.98;8.30;;;14.90;99.90;;;15.12;66.96;102692.72;5086316;28;20125;-67
2023/05/30 05:24:01;;;;;;;23.35;8.25;;;14.90;99.90;;;15.11;67.73;102696.28;5099740;28;20094;-67
2023/05/30 05:26:29;;;;;;;20.58;8.68;;;14.80;99.90;;;15.20;67.66;102704.31;5102882;28;20052;-67
2023/05/30 05:28:58;;;;;;;17.75;7.78;;;14.80;99.90;;;15.17;67.76;102717.66;5079484;28;20055;-67
2023/05/30 05:31:26;;;;;;;21.00;8.23;;;14.80;99.90;;;15.24;67.84;102699.88;5086575;28;20550;-67
2023/05/30 05:33:54;;;;;;;17.75;8.35;;;14.80;99.90;;;15.27;67.81;102702.59;5084268;28;20044;-67
2023/05/30 05:36:23;;;;;;;19.95;7.80;;;14.90;99.90;;;15.26;67.41;102707.03;5085846;28;20050;-67
2023/05/30 05:38:51;;;;;;;17.85;7.93;;;14.90;99.90;;;15.34;67.54;102705.28;5084754;28;20071;-67
2023/05/30 05:41:21;;;;;;;17.80;7.85;;;15.00;99.90;;;15.27;67.68;102703.47;5084720;28;20117;-67
2023/05/30 05:43:50;;;;;;;17.27;8.17;;;15.00;99.90;;;15.41;67.75;102705.34;5085082;28;20087;-67
2023/05/30 05:46:20;;;;;;;17.02;8.32;;;15.00;99.90;;;15.39;67.81;102697.31;5083782;28;20105;-67
2023/05/30 05:48:49;;;;;;;18.13;8.02;;;15.10;99.90;;;15.27;66.95;102702.59;5061872;28;20445;-67
2023/05/30 05:51:17;;;;;;;20.42;8.23;;;15.10;99.90;;;15.25;67.49;102704.34;5078936;28;20070;-67
2023/05/30 05:53:46;;;;;;;17.08;8.13;;;14.90;99.90;;;15.19;67.73;102705.19;5101864;28;20052;-67
2023/05/30 05:56:14;;;;;;;17.25;8.05;;;14.90;99.90;;;15.21;67.81;102707.88;5083399;28;20102;-67
2023/05/30 05:58:44;;;;;;;23.25;8.38;;;14.90;99.90;;;15.05;67.94;102674.91;5085690;28;20097;-67
2023/05/30 06:01:12;;;;;;;15.70;8.15;;;14.80;99.90;;;15.22;67.99;102705.22;5100142;28;20088;-67
2023/05/30 06:03:41;;;;;;;14.82;8.23;;;14.90;99.90;;;15.24;67.61;102705.22;5084334;28;20447;-67
2023/05/30 06:06:09;;;;;;;16.13;8.27;;;14.90;99.90;;;15.26;67.10;102709.69;5085007;28;20064;-67
2023/05/30 06:08:38;;;;;;;15.20;8.60;;;15.00;99.90;;;15.29;67.25;102708.81;5082094;28;20109;-67
2023/05/30 06:11:06;;;;;;;16.30;7.55;;;15.00;99.90;;;15.34;67.44;102728.41;5085708;28;20052;-67
2023/05/30 06:13:35;;;;;;;16.98;8.20;;;15.00;99.90;;;15.37;67.48;102723.97;5082518;28;20050;-67
2023/05/30 06:16:05;;;;;;;17.48;8.18;;;15.00;99.90;;;15.47;66.63;102713.38;5078565;28;20118;-67
2023/05/30 06:18:34;;;;;;;18.10;7.97;;;15.20;99.90;;;15.53;66.32;102721.41;5085604;28;20036;-67
2023/05/30 06:21:04;;;;;;;16.15;8.27;;;15.20;99.90;;;15.40;65.69;102704.44;5083206;28;20045;-67
2023/05/30 06:23:33;;;;;;;;;;;15.10;99.90;;;15.43;65.24;102732.94;5085241;28;20052;-67
2023/05/30 06:26:01;;;;;;;12.43;7.43;;;15.20;99.90;;;15.56;65.46;102705.44;5084356;28;19966;-67
2023/05/30 06:28:29;;;;;;;15.35;7.70;;;15.20;99.90;;;15.59;65.89;102689.44;5083798;28;20113;-67
2023/05/30 06:30:58;;;;;;;14.43;7.80;;;15.40;99.90;;;15.71;65.65;102721.50;5084995;28;20050;-67
2023/05/30 06:33:28;;;;;;;17.33;8.02;;;15.40;99.90;;;15.89;65.41;102717.13;5082337;28;20120;-67
2023/05/30 06:35:56;;;;;;;19.87;7.70;;;15.50;99.90;;;16.00;65.14;102722.50;5085849;28;20047;-67
2023/05/30 06:38:25;;;;;;;21.55;7.93;;;15.70;99.90;;;16.02;64.36;102729.63;5078453;28;20285;-67
2023/05/30 06:40:53;;;;;;;18.70;8.02;;;15.70;99.90;;;16.00;63.54;102722.50;5085216;28;20071;-67
2023/05/30 06:43:22;;;;;;;19.05;7.40;;;15.70;99.90;;;16.04;63.49;102733.22;5082811;28;20127;-67
2023/05/30 06:45:51;;;;;;;16.58;7.57;;;15.70;99.90;;;16.12;63.67;102741.25;5082859;28;20516;-67
2023/05/30 06:48:19;;;;;;;21.73;8.05;;;15.80;99.90;;;16.24;64.04;102747.47;5083617;28;20133;-67
2023/05/30 06:50:49;;;;;;;15.93;7.95;;;15.90;99.90;;;16.32;63.35;102743.97;5083612;28;20071;-67
2023/05/30 06:53:18;;;;;;;20.30;7.82;;;15.90;99.90;;;16.30;63.03;102745.75;5082906;28;20048;-67
2023/05/30 06:55:47;;;;;;;14.77;7.43;;;15.90;99.90;;;16.14;63.21;102744.81;5080837;28;20047;-67
2023/05/30 06:58:15;;;;;;;14.68;7.45;;;15.80;99.90;;;16.26;63.03;102742.13;5083803;28;20048;-67
2023/05/30 07:00:45;;;;;;;21.77;7.80;;;15.90;99.90;;;16.25;62.72;102738.59;5077679;28;20056;-67
2023/05/30 07:03:13;;;;;;;15.73;7.88;;;15.90;99.90;;;16.24;62.64;102747.47;5084615;28;20131;-67
2023/05/30 07:05:42;;;;;;;20.20;8.75;;;15.90;99.90;;;16.34;62.93;102743.06;5082441;28;20040;-68
2023/05/30 07:08:11;;;;;;;15.65;7.75;;;16.00;99.90;;;16.18;62.21;102725.22;5083883;28;20138;-67
2023/05/30 07:10:40;;;;;;;14.63;7.17;;;16.00;99.90;;;16.35;62.40;102741.28;5083223;28;20052;-67
2023/05/30 07:13:08;;;;;;;17.48;7.75;;;16.00;99.90;;;16.36;61.98;102738.59;5081382;28;20301;-67
2023/05/30 07:15:37;;;;;;;15.07;7.20;;;16.10;99.90;;;16.27;61.98;102742.16;5083957;28;20044;-67
2023/05/30 07:18:05;;;;;;;15.77;7.18;;;16.00;99.90;;;16.20;62.54;102745.69;5082099;28;20036;-68
2023/05/30 07:20:34;;;;;;;17.45;7.65;;;15.90;99.90;;;16.44;62.68;102734.16;5084380;28;20039;-68
2023/05/30 07:23:02;;;;;;;19.02;7.88;;;16.10;99.90;;;16.55;62.62;102728.88;5096981;28;20044;-68
2023/05/30 07:25:32;;;;;;;18.35;7.88;;;16.20;99.90;;;16.67;61.79;102737.78;5051752;28;20056;-67
2023/05/30 07:28:00;;;;;;;18.17;7.43;;;16.40;99.90;;;16.75;61.65;102735.13;5084517;28;20059;-67
2023/05/30 07:30:29;;;;;;;17.90;7.68;;;16.40;99.90;;;16.87;61.64;102736.03;5082215;28;20469;-68
2023/05/30 07:32:57;;;;;;;17.85;7.72;;;16.50;99.90;;;16.89;60.65;102733.34;5099206;28;20134;-67
2023/05/30 07:35:26;;;;;;;17.60;6.82;;;16.60;99.90;;;16.77;60.85;102720.88;5081623;28;20050;-68
2023/05/30 07:37:54;;;;;;;14.60;7.32;;;16.60;99.90;;;16.72;60.26;102736.03;5082511;28;20043;-67
2023/05/30 07:40:23;;;;;;;17.50;7.25;;;16.50;99.90;;;16.88;60.74;102732.44;5083466;28;20106;-67
2023/05/30 07:42:53;;;;;;;22.60;7.75;;;16.50;99.90;;;16.78;59.83;102730.66;5081815;28;20045;-67
2023/05/30 07:45:21;;;;;;;15.97;7.17;;;16.50;99.90;;;16.84;60.36;102733.31;5084384;28;20065;-67
2023/05/30 07:47:50;;;;;;;16.85;7.25;;;16.60;99.90;;;17.13;61.06;102738.63;5075540;28;20302;-67
2023/05/30 07:50:18;;;;;;;18.60;7.60;;;16.80;99.90;;;17.26;60.38;102740.44;5084335;28;20419;-67
2023/05/30 07:52:47;;;;;;;19.75;7.95;;;16.90;99.90;;;17.42;60.06;102741.28;5081207;28;20090;-67
2023/05/30 07:55:16;;;;;;;24.42;7.93;;;17.10;99.90;;;16.95;62.23;102738.69;5083541;28;20043;-67
2023/05/30 07:57:44;;;;;;;15.75;7.00;;;16.70;99.90;;;17.27;60.84;102738.63;5082148;28;20067;-67
2023/05/30 08:00:16;;;;;;;19.17;7.93;;;16.90;99.90;;;17.49;60.06;102743.97;5098210;28;20052;-67
2023/05/30 08:02:44;;;;;;;15.88;7.50;;;17.10;99.90;;;17.71;59.61;102744.81;5083149;28;20052;-66
2023/05/30 08:05:13;;;;;;;14.50;7.20;;;17.30;99.90;;;17.73;58.95;102722.47;5080659;28;20045;-67
2023/05/30 08:07:41;;;;;;;16.80;7.25;;;17.50;99.90;;;17.91;58.75;102743.81;5084234;28;20476;-67
2023/05/30 08:10:10;;;;;;;19.92;7.72;;;17.60;99.90;;;17.94;58.09;102732.19;5080476;28;20137;-67
2023/05/30 08:12:38;;;;;;;24.85;8.80;;;17.60;99.90;;;18.09;58.20;102721.41;5077028;28;20094;-67
2023/05/30 08:15:09;;;;;;;14.25;6.70;;;17.80;99.90;;;18.23;57.61;102730.25;5083605;28;20048;-67
2023/05/30 08:17:40;;;;;;;21.60;7.45;;;17.90;99.90;;;18.43;57.67;102735.50;5081696;28;20475;-67
2023/05/30 08:20:12;;;;;;;18.17;7.32;;;18.10;99.90;;;18.49;56.89;102731.00;5082146;28;20040;-67
2023/05/30 08:22:40;;;;;;;16.23;7.72;;;18.10;99.90;;;18.46;56.75;102723.00;5082123;28;20044;-67
2023/05/30 08:25:10;;;;;;;16.27;6.75;;;18.20;99.90;;;18.64;56.64;102712.09;5080839;28;20044;-67
2023/05/30 08:27:39;;;;;;;20.63;8.13;;;18.30;99.90;;;18.78;56.28;102710.19;5076196;28;20110;-68
2023/05/30 08:30:10;;;;;;;16.38;7.65;;;18.50;99.90;;;18.80;56.56;102721.81;5092561;28;20355;-67
2023/05/30 08:32:40;;;;;;;17.48;7.30;;;18.50;99.90;;;18.92;56.71;102710.06;5083250;28;20051;-67
2023/05/30 08:35:09;;;;;;;15.48;7.07;;;18.60;99.90;;;18.89;56.18;102718.16;5080650;28;20095;-67
2023/05/30 08:37:37;;;;;;;18.98;7.80;;;18.60;99.90;;;18.93;56.26;102715.41;5097529;28;20097;-67
2023/05/30 08:40:10;;;;;;;17.15;7.05;;;18.60;99.90;;;19.07;55.97;102707.25;5083013;28;20127;-67
2023/05/30 08:42:39;;;;;;;16.33;6.88;;;18.70;99.90;;;19.15;56.10;102705.38;5079246;28;20548;-68
2023/05/30 08:45:09;;;;;;;24.13;7.30;;;18.80;99.90;;;19.30;56.01;102715.06;5083922;28;20044;-68
2023/05/30 08:47:39;;;;;;;18.60;7.03;;;19.00;99.90;;;19.50;55.50;102716.66;5077317;28;20052;-67
2023/05/30 08:50:09;;;;;;;17.67;7.55;;;19.20;99.90;;;19.65;54.78;102713.78;5082974;28;20557;-68
2023/05/30 08:52:42;;;;;;;20.42;7.60;;;19.30;99.90;;;19.84;54.53;102709.03;5081707;28;20087;-67
2023/05/30 08:55:14;;;;;;;15.88;7.18;;;19.50;99.90;;;19.72;54.49;102710.09;5081168;28;20055;-67
2023/05/30 08:57:51;;;;;;;20.75;7.35;;;19.50;99.90;;;19.85;54.10;102712.63;5099536;28;20052;-67
2023/05/30 09:00:20;;;;;;;16.42;6.80;;;19.50;99.90;;;19.94;54.14;102716.09;5078165;28;20543;-68
2023/05/30 09:02:54;;;;;;;20.10;7.25;;;19.60;99.90;;;19.87;53.44;102709.03;5082225;28;20040;-67
2023/05/30 09:05:22;;;;;;;15.82;7.07;;;19.60;99.90;;;19.93;54.28;102711.63;5082609;28;20071;-67
2023/05/30 09:07:53;;;;;;;14.43;7.32;;;19.60;99.90;;;19.89;53.92;102707.22;5080596;28;20045;-67
2023/05/30 09:10:21;;;;;;;19.70;7.25;;;19.60;99.90;;;20.06;54.05;102704.28;5083626;28;20488;-67
2023/05/30 09:12:50;;;;;;;17.13;7.95;;;19.70;99.90;;;20.12;53.13;102699.72;5075978;28;20055;-68
2023/05/30 09:15:18;;;;;;;16.42;7.32;;;19.80;99.90;;;20.21;53.00;102688.00;5083391;28;20047;-67
2023/05/30 09:17:46;;;;;;;14.40;7.47;;;19.90;99.90;;;20.47;52.52;102697.41;5083371;28;20078;-67
2023/05/30 09:20:18;;;;;;;16.05;6.65;;;20.20;99.90;;;20.54;52.53;102676.66;5086345;28;20431;-68
2023/05/30 09:22:47;;;;;;;16.25;7.35;;;20.20;99.90;;;20.55;52.84;102689.22;5085429;28;20045;-68
2023/05/30 09:25:16;;;;;;;16.08;7.20;;;20.20;99.90;;;20.67;52.41;102679.13;5084768;28;20481;-68
2023/05/30 09:27:49;;;;;;;19.92;7.65;;;20.40;99.90;;;20.63;52.58;102681.91;5086191;28;20048;-68
2023/05/30 09:30:21;;;;;;;19.38;7.78;;;20.40;99.90;;;20.80;51.77;102689.69;5080119;28;20044;-68
2023/05/30 09:33:01;;;;;;;11.65;7.10;;;20.50;99.90;;;20.98;50.84;102692.91;5085155;28;20040;-68
2023/05/30 09:35:31;;;;;;;15.18;7.13;;;20.60;99.90;;;21.06;50.12;102682.94;5086268;28;20129;-68
2023/05/30 09:38:05;;;;;;;15.73;6.88;;;20.70;99.90;;;21.28;50.16;102683.44;5083508;28;20048;-67
2023/05/30 09:40:34;;;;;;;14.85;6.25;;;21.00;99.90;;;21.46;49.78;102683.06;5080227;28;20545;-68
2023/05/30 09:43:02;;;;;;;16.80;6.68;;;21.20;99.90;;;21.41;49.68;102685.84;5086072;28;20446;-68
2023/05/30 09:45:31;;;;;;;14.85;6.38;;;21.20;99.90;;;21.42;50.31;102686.75;5084501;28;20131;-68
2023/05/30 09:47:59;;;;;;;18.13;7.10;;;21.10;99.90;;;21.35;49.97;102685.09;5085030;28;20493;-68
2023/05/30 09:50:28;;;;;;;17.42;7.00;;;21.10;99.90;;;21.30;50.24;102686.97;5084906;28;20045;-68
2023/05/30 09:53:00;;;;;;;16.75;6.93;;;21.10;99.90;;;21.25;50.18;102688.88;5084349;28;20131;-68
2023/05/30 09:55:30;;;;;;;21.40;8.02;;;21.00;99.90;;;20.88;49.79;102682.38;5086043;28;20058;-68
2023/05/30 09:57:58;;;;;;;14.68;6.80;;;20.70;99.90;;;21.06;50.25;102692.84;5078781;28;20059;-68
2023/05/30 10:00:29;;;;;;;17.40;7.70;;;20.70;99.90;;;20.92;50.21;102695.75;5079445;28;20048;-68
2023/05/30 10:02:58;;;;;;;19.02;7.20;;;20.70;99.90;;;20.93;51.25;102675.97;5085551;28;20055;-68
2023/05/30 10:05:30;;;;;;;19.00;7.28;;;20.60;99.90;;;21.08;50.56;102686.50;5084220;28;20055;-68
2023/05/30 10:08:00;;;;;;;17.00;7.15;;;20.80;99.90;;;21.10;49.87;102683.81;5084311;28;20044;-68
2023/05/30 10:10:28;;;;;;;14.77;7.30;;;20.80;99.90;;;20.80;49.40;102662.78;5085364;28;20059;-68
2023/05/30 10:12:59;;;;;;;18.00;7.63;;;20.70;99.90;;;20.64;50.46;102667.53;5083021;28;20045;-67
2023/05/30 10:15:28;;;;;;;19.48;7.53;;;20.50;99.90;;;20.66;51.63;102682.75;5078425;28;20143;-68
2023/05/30 10:18:03;;;;;;;14.25;7.13;;;20.30;99.90;;;20.79;51.05;102661.03;5079181;28;20072;-67